sensor_id;sensor_type;location;lat;lon;timestamp;P1;durP1;ratioP1;P2;durP2;ratioP2
30048;SDS011;16879;50.852;15.602;2022-09-09T00:00:40;2.72;;;2.53;;
30048;SDS011;16879;50.852;15.602;2022-09-09T00:05:55;2.50;;;2.30;;
30048;SDS011;16879;50.852;15.602;2022-09-09T00:08:39;2.67;;;2.47;;
30048;SDS011;16879;50.852;15.602;2022-09-09T00:11:07;2.58;;;2.38;;
30048;SDS011;16879;50.852;15.602;2022-09-09T00:13:39;2.47;;;2.25;;
30048;SDS011;16879;50.852;15.602;2022-09-09T00:22:23;2.67;;;2.47;;
30048;SDS011;16879;50.852;15.602;2022-09-09T00:24:46;2.75;;;2.55;;
30048;SDS011;16879;50.852;15.602;2022-09-09T00:30:16;2.33;;;2.15;;
30048;SDS011;16879;50.852;15.602;2022-09-09T00:32:45;2.50;;;2.30;;
30048;SDS011;16879;50.852;15.602;2022-09-09T00:35:17;2.33;;;2.10;;
30048;SDS011;16879;50.852;15.602;2022-09-09T00:37:48;2.28;;;2.08;;
30048;SDS011;16879;50.852;15.602;2022-09-09T00:40:24;4.90;;;2.20;;
30048;SDS011;16879;50.852;15.602;2022-09-09T00:45:52;3.33;;;2.03;;
30048;SDS011;16879;50.852;15.602;2022-09-09T00:48:35;2.42;;;2.25;;
30048;SDS011;16879;50.852;15.602;2022-09-09T00:54:13;2.70;;;2.50;;
30048;SDS011;16879;50.852;15.602;2022-09-09T00:57:26;2.42;;;2.22;;
30048;SDS011;16879;50.852;15.602;2022-09-09T00:59:48;2.60;;;2.40;;
30048;SDS011;16879;50.852;15.602;2022-09-09T01:05:08;1.88;;;1.77;;
30048;SDS011;16879;50.852;15.602;2022-09-09T01:07:40;3.83;;;2.13;;
30048;SDS011;16879;50.852;15.602;2022-09-09T01:13:24;2.35;;;2.15;;
30048;SDS011;16879;50.852;15.602;2022-09-09T01:15:56;3.15;;;2.17;;
30048;SDS011;16879;50.852;15.602;2022-09-09T01:18:28;2.00;;;1.83;;
30048;SDS011;16879;50.852;15.602;2022-09-09T01:21:04;3.17;;;2.10;;
30048;SDS011;16879;50.852;15.602;2022-09-09T01:24:09;2.63;;;2.17;;
30048;SDS011;16879;50.852;15.602;2022-09-09T01:26:41;2.20;;;2.10;;
30048;SDS011;16879;50.852;15.602;2022-09-09T01:29:09;4.10;;;2.42;;
30048;SDS011;16879;50.852;15.602;2022-09-09T01:34:09;2.60;;;2.42;;
30048;SDS011;16879;50.852;15.602;2022-09-09T01:39:34;2.40;;;2.20;;
30048;SDS011;16879;50.852;15.602;2022-09-09T01:42:02;3.45;;;2.20;;
30048;SDS011;16879;50.852;15.602;2022-09-09T01:44:30;2.88;;;2.00;;
30048;SDS011;16879;50.852;15.602;2022-09-09T01:46:56;3.83;;;2.20;;
30048;SDS011;16879;50.852;15.602;2022-09-09T01:49:22;1.77;;;1.67;;
30048;SDS011;16879;50.852;15.602;2022-09-09T01:51:50;1.67;;;1.58;;
30048;SDS011;16879;50.852;15.602;2022-09-09T01:54:19;3.08;;;2.00;;
30048;SDS011;16879;50.852;15.602;2022-09-09T02:08:04;2.38;;;2.17;;
30048;SDS011;16879;50.852;15.602;2022-09-09T02:10:45;2.00;;;1.90;;
30048;SDS011;16879;50.852;15.602;2022-09-09T02:13:30;3.78;;;2.33;;
30048;SDS011;16879;50.852;15.602;2022-09-09T02:18:32;3.67;;;2.38;;
30048;SDS011;16879;50.852;15.602;2022-09-09T02:21:29;2.05;;;1.85;;
30048;SDS011;16879;50.852;15.602;2022-09-09T02:23:57;1.95;;;1.85;;
30048;SDS011;16879;50.852;15.602;2022-09-09T02:26:29;2.17;;;1.80;;
30048;SDS011;16879;50.852;15.602;2022-09-09T02:29:01;2.45;;;2.25;;
30048;SDS011;16879;50.852;15.602;2022-09-09T02:31:30;4.70;;;2.38;;
30048;SDS011;16879;50.852;15.602;2022-09-09T02:33:59;3.00;;;2.75;;
30048;SDS011;16879;50.852;15.602;2022-09-09T02:36:28;1.90;;;1.80;;
30048;SDS011;16879;50.852;15.602;2022-09-09T02:38:58;2.13;;;1.98;;
30048;SDS011;16879;50.852;15.602;2022-09-09T02:41:27;2.15;;;1.60;;
30048;SDS011;16879;50.852;15.602;2022-09-09T02:43:57;2.10;;;1.90;;
30048;SDS011;16879;50.852;15.602;2022-09-09T02:49:03;2.05;;;1.95;;
30048;SDS011;16879;50.852;15.602;2022-09-09T02:52:08;3.10;;;2.42;;
30048;SDS011;16879;50.852;15.602;2022-09-09T02:54:47;2.42;;;2.22;;
30048;SDS011;16879;50.852;15.602;2022-09-09T02:59:45;3.85;;;2.47;;
30048;SDS011;16879;50.852;15.602;2022-09-09T03:02:12;2.95;;;2.40;;
30048;SDS011;16879;50.852;15.602;2022-09-09T03:04:39;4.90;;;1.73;;
30048;SDS011;16879;50.852;15.602;2022-09-09T03:07:06;4.40;;;2.47;;
30048;SDS011;16879;50.852;15.602;2022-09-09T03:09:32;2.35;;;1.60;;
30048;SDS011;16879;50.852;15.602;2022-09-09T03:11:58;2.45;;;1.80;;
30048;SDS011;16879;50.852;15.602;2022-09-09T03:14:25;6.95;;;2.17;;
30048;SDS011;16879;50.852;15.602;2022-09-09T03:16:51;2.05;;;1.60;;
30048;SDS011;16879;50.852;15.602;2022-09-09T03:19:18;2.42;;;1.90;;
30048;SDS011;16879;50.852;15.602;2022-09-09T03:21:45;3.88;;;2.03;;
30048;SDS011;16879;50.852;15.602;2022-09-09T03:24:12;2.22;;;1.75;;
30048;SDS011;16879;50.852;15.602;2022-09-09T03:26:39;2.08;;;1.70;;
30048;SDS011;16879;50.852;15.602;2022-09-09T03:29:06;2.10;;;1.90;;
30048;SDS011;16879;50.852;15.602;2022-09-09T03:31:33;3.05;;;1.95;;
30048;SDS011;16879;50.852;15.602;2022-09-09T03:34:00;2.00;;;1.90;;
30048;SDS011;16879;50.852;15.602;2022-09-09T03:36:27;1.90;;;1.80;;
30048;SDS011;16879;50.852;15.602;2022-09-09T03:38:53;1.70;;;1.60;;
30048;SDS011;16879;50.852;15.602;2022-09-09T03:41:20;3.88;;;1.70;;
30048;SDS011;16879;50.852;15.602;2022-09-09T03:43:48;5.55;;;1.92;;
30048;SDS011;16879;50.852;15.602;2022-09-09T03:46:22;1.77;;;1.63;;
30048;SDS011;16879;50.852;15.602;2022-09-09T03:48:49;1.48;;;1.38;;
30048;SDS011;16879;50.852;15.602;2022-09-09T03:51:16;7.38;;;1.75;;
30048;SDS011;16879;50.852;15.602;2022-09-09T03:53:42;1.70;;;1.60;;
30048;SDS011;16879;50.852;15.602;2022-09-09T03:56:08;2.08;;;1.88;;
30048;SDS011;16879;50.852;15.602;2022-09-09T03:58:34;2.47;;;2.38;;
30048;SDS011;16879;50.852;15.602;2022-09-09T04:01:05;2.72;;;2.35;;
30048;SDS011;16879;50.852;15.602;2022-09-09T04:03:38;4.57;;;3.80;;
30048;SDS011;16879;50.852;15.602;2022-09-09T04:06:05;6.32;;;3.38;;
30048;SDS011;16879;50.852;15.602;2022-09-09T04:08:33;3.83;;;3.50;;
30048;SDS011;16879;50.852;15.602;2022-09-09T04:11:00;7.53;;;4.25;;
30048;SDS011;16879;50.852;15.602;2022-09-09T04:13:31;4.28;;;3.97;;
30048;SDS011;16879;50.852;15.602;2022-09-09T04:16:02;5.70;;;4.30;;
30048;SDS011;16879;50.852;15.602;2022-09-09T04:18:29;4.68;;;4.28;;
30048;SDS011;16879;50.852;15.602;2022-09-09T04:20:55;5.43;;;4.93;;
30048;SDS011;16879;50.852;15.602;2022-09-09T04:23:22;7.80;;;5.78;;
30048;SDS011;16879;50.852;15.602;2022-09-09T04:25:50;9.13;;;5.88;;
30048;SDS011;16879;50.852;15.602;2022-09-09T04:28:18;6.45;;;4.95;;
30048;SDS011;16879;50.852;15.602;2022-09-09T04:30:46;6.32;;;4.47;;
30048;SDS011;16879;50.852;15.602;2022-09-09T04:33:12;7.15;;;5.47;;
30048;SDS011;16879;50.852;15.602;2022-09-09T04:35:39;4.82;;;4.25;;
30048;SDS011;16879;50.852;15.602;2022-09-09T04:38:09;4.30;;;3.72;;
30048;SDS011;16879;50.852;15.602;2022-09-09T04:40:35;3.53;;;3.22;;
30048;SDS011;16879;50.852;15.602;2022-09-09T04:43:01;4.63;;;3.80;;
30048;SDS011;16879;50.852;15.602;2022-09-09T04:45:31;4.50;;;3.47;;
30048;SDS011;16879;50.852;15.602;2022-09-09T04:47:57;4.90;;;3.88;;
30048;SDS011;16879;50.852;15.602;2022-09-09T04:50:24;4.38;;;3.40;;
30048;SDS011;16879;50.852;15.602;2022-09-09T04:52:50;6.25;;;3.70;;
30048;SDS011;16879;50.852;15.602;2022-09-09T04:55:17;3.00;;;2.72;;
30048;SDS011;16879;50.852;15.602;2022-09-09T04:57:43;3.22;;;2.70;;
30048;SDS011;16879;50.852;15.602;2022-09-09T05:00:09;3.45;;;2.65;;
30048;SDS011;16879;50.852;15.602;2022-09-09T05:02:38;3.25;;;2.95;;
30048;SDS011;16879;50.852;15.602;2022-09-09T05:05:05;3.88;;;2.10;;
30048;SDS011;16879;50.852;15.602;2022-09-09T05:07:31;6.60;;;2.33;;
30048;SDS011;16879;50.852;15.602;2022-09-09T05:09:57;4.85;;;2.60;;
30048;SDS011;16879;50.852;15.602;2022-09-09T05:12:24;2.78;;;2.25;;
30048;SDS011;16879;50.852;15.602;2022-09-09T05:14:51;2.70;;;2.00;;
30048;SDS011;16879;50.852;15.602;2022-09-09T05:17:17;2.13;;;1.98;;
30048;SDS011;16879;50.852;15.602;2022-09-09T05:19:43;2.20;;;2.00;;
30048;SDS011;16879;50.852;15.602;2022-09-09T05:22:09;2.70;;;2.30;;
30048;SDS011;16879;50.852;15.602;2022-09-09T05:24:38;2.67;;;2.25;;
30048;SDS011;16879;50.852;15.602;2022-09-09T05:27:06;2.78;;;2.38;;
30048;SDS011;16879;50.852;15.602;2022-09-09T05:29:32;2.97;;;2.55;;
30048;SDS011;16879;50.852;15.602;2022-09-09T05:32:00;7.63;;;2.95;;
30048;SDS011;16879;50.852;15.602;2022-09-09T05:34:26;2.20;;;1.95;;
30048;SDS011;16879;50.852;15.602;2022-09-09T05:36:52;2.53;;;2.33;;
30048;SDS011;16879;50.852;15.602;2022-09-09T05:39:18;4.35;;;1.90;;
30048;SDS011;16879;50.852;15.602;2022-09-09T05:41:44;4.03;;;2.10;;
30048;SDS011;16879;50.852;15.602;2022-09-09T05:44:10;5.93;;;2.40;;
30048;SDS011;16879;50.852;15.602;2022-09-09T05:46:36;5.55;;;3.03;;
30048;SDS011;16879;50.852;15.602;2022-09-09T05:49:01;4.97;;;2.60;;
30048;SDS011;16879;50.852;15.602;2022-09-09T05:51:28;6.25;;;2.00;;
30048;SDS011;16879;50.852;15.602;2022-09-09T05:53:58;1.95;;;1.75;;
30048;SDS011;16879;50.852;15.602;2022-09-09T05:56:24;7.13;;;2.38;;
30048;SDS011;16879;50.852;15.602;2022-09-09T05:58:52;3.22;;;2.42;;
30048;SDS011;16879;50.852;15.602;2022-09-09T06:03:46;6.13;;;4.85;;
30048;SDS011;16879;50.852;15.602;2022-09-09T06:06:14;6.18;;;5.45;;
30048;SDS011;16879;50.852;15.602;2022-09-09T06:08:43;7.50;;;5.53;;
30048;SDS011;16879;50.852;15.602;2022-09-09T06:11:11;6.13;;;5.53;;
30048;SDS011;16879;50.852;15.602;2022-09-09T06:13:42;7.00;;;6.30;;
30048;SDS011;16879;50.852;15.602;2022-09-09T06:16:17;7.93;;;7.00;;
30048;SDS011;16879;50.852;15.602;2022-09-09T06:18:44;7.68;;;7.03;;
30048;SDS011;16879;50.852;15.602;2022-09-09T06:21:15;9.75;;;7.28;;
30048;SDS011;16879;50.852;15.602;2022-09-09T06:24:02;8.85;;;7.30;;
30048;SDS011;16879;50.852;15.602;2022-09-09T06:26:32;7.68;;;6.63;;
30048;SDS011;16879;50.852;15.602;2022-09-09T06:29:05;10.07;;;7.90;;
30048;SDS011;16879;50.852;15.602;2022-09-09T06:31:32;8.65;;;6.75;;
30048;SDS011;16879;50.852;15.602;2022-09-09T06:33:59;11.43;;;7.38;;
30048;SDS011;16879;50.852;15.602;2022-09-09T06:36:29;8.40;;;6.70;;
30048;SDS011;16879;50.852;15.602;2022-09-09T06:38:57;10.98;;;7.30;;
30048;SDS011;16879;50.852;15.602;2022-09-09T06:41:24;12.00;;;6.60;;
30048;SDS011;16879;50.852;15.602;2022-09-09T06:43:52;9.23;;;8.23;;
30048;SDS011;16879;50.852;15.602;2022-09-09T06:46:18;7.30;;;6.47;;
30048;SDS011;16879;50.852;15.602;2022-09-09T06:48:49;7.70;;;6.05;;
30048;SDS011;16879;50.852;15.602;2022-09-09T06:51:19;5.57;;;4.63;;
30048;SDS011;16879;50.852;15.602;2022-09-09T06:53:52;8.93;;;6.70;;
30048;SDS011;16879;50.852;15.602;2022-09-09T06:56:23;9.27;;;7.22;;
30048;SDS011;16879;50.852;15.602;2022-09-09T06:58:54;9.52;;;6.53;;
30048;SDS011;16879;50.852;15.602;2022-09-09T07:01:40;8.57;;;6.72;;
30048;SDS011;16879;50.852;15.602;2022-09-09T07:04:07;8.63;;;5.85;;
30048;SDS011;16879;50.852;15.602;2022-09-09T07:06:41;7.68;;;5.65;;
30048;SDS011;16879;50.852;15.602;2022-09-09T07:09:09;8.85;;;6.22;;
30048;SDS011;16879;50.852;15.602;2022-09-09T07:11:40;6.80;;;5.75;;
30048;SDS011;16879;50.852;15.602;2022-09-09T07:14:10;10.63;;;6.22;;
30048;SDS011;16879;50.852;15.602;2022-09-09T07:16:42;6.55;;;4.95;;
30048;SDS011;16879;50.852;15.602;2022-09-09T07:19:09;7.63;;;5.00;;
30048;SDS011;16879;50.852;15.602;2022-09-09T07:21:36;5.90;;;5.30;;
30048;SDS011;16879;50.852;15.602;2022-09-09T07:24:01;5.82;;;4.40;;
30048;SDS011;16879;50.852;15.602;2022-09-09T07:26:29;10.70;;;5.13;;
30048;SDS011;16879;50.852;15.602;2022-09-09T07:28:56;9.00;;;5.78;;
30048;SDS011;16879;50.852;15.602;2022-09-09T07:31:26;7.35;;;4.90;;
30048;SDS011;16879;50.852;15.602;2022-09-09T07:33:55;10.93;;;5.03;;
30048;SDS011;16879;50.852;15.602;2022-09-09T07:36:23;6.18;;;5.28;;
30048;SDS011;16879;50.852;15.602;2022-09-09T07:38:52;10.93;;;6.55;;
30048;SDS011;16879;50.852;15.602;2022-09-09T07:41:22;10.15;;;5.90;;
30048;SDS011;16879;50.852;15.602;2022-09-09T07:43:50;7.43;;;6.13;;
30048;SDS011;16879;50.852;15.602;2022-09-09T07:46:19;5.30;;;4.28;;
30048;SDS011;16879;50.852;15.602;2022-09-09T07:49:05;6.97;;;5.30;;
30048;SDS011;16879;50.852;15.602;2022-09-09T07:51:32;10.88;;;6.57;;
30048;SDS011;16879;50.852;15.602;2022-09-09T07:54:07;6.63;;;4.88;;
30048;SDS011;16879;50.852;15.602;2022-09-09T07:56:36;7.65;;;4.32;;
30048;SDS011;16879;50.852;15.602;2022-09-09T07:59:04;4.07;;;3.50;;
30048;SDS011;16879;50.852;15.602;2022-09-09T08:01:32;12.82;;;4.65;;
30048;SDS011;16879;50.852;15.602;2022-09-09T08:04:06;4.50;;;3.33;;
30048;SDS011;16879;50.852;15.602;2022-09-09T08:06:35;4.20;;;2.97;;
30048;SDS011;16879;50.852;15.602;2022-09-09T08:09:03;5.43;;;3.13;;
30048;SDS011;16879;50.852;15.602;2022-09-09T08:11:30;6.13;;;3.58;;
30048;SDS011;16879;50.852;15.602;2022-09-09T08:13:56;4.43;;;3.03;;
30048;SDS011;16879;50.852;15.602;2022-09-09T08:16:24;4.05;;;2.22;;
30048;SDS011;16879;50.852;15.602;2022-09-09T08:18:52;4.32;;;2.40;;
30048;SDS011;16879;50.852;15.602;2022-09-09T08:21:21;3.38;;;2.20;;
30048;SDS011;16879;50.852;15.602;2022-09-09T08:23:50;5.28;;;2.80;;
30048;SDS011;16879;50.852;15.602;2022-09-09T08:26:18;5.40;;;2.92;;
30048;SDS011;16879;50.852;15.602;2022-09-09T08:28:50;3.50;;;2.20;;
30048;SDS011;16879;50.852;15.602;2022-09-09T08:31:33;2.22;;;2.00;;
30048;SDS011;16879;50.852;15.602;2022-09-09T08:34:00;4.18;;;1.70;;
30048;SDS011;16879;50.852;15.602;2022-09-09T08:36:31;3.30;;;1.30;;
30048;SDS011;16879;50.852;15.602;2022-09-09T08:38:59;2.25;;;1.52;;
30048;SDS011;16879;50.852;15.602;2022-09-09T08:41:35;2.15;;;1.92;;
30048;SDS011;16879;50.852;15.602;2022-09-09T08:47:06;3.17;;;1.40;;
30048;SDS011;16879;50.852;15.602;2022-09-09T08:52:29;3.25;;;1.30;;
30048;SDS011;16879;50.852;15.602;2022-09-09T08:55:43;2.03;;;0.80;;
30048;SDS011;16879;50.852;15.602;2022-09-09T09:03:57;1.38;;;0.40;;
30048;SDS011;16879;50.852;15.602;2022-09-09T09:12:00;3.20;;;0.60;;
30048;SDS011;16879;50.852;15.602;2022-09-09T09:14:30;1.75;;;0.52;;
30048;SDS011;16879;50.852;15.602;2022-09-09T09:17:00;3.33;;;1.00;;
30048;SDS011;16879;50.852;15.602;2022-09-09T09:19:28;0.82;;;0.80;;
30048;SDS011;16879;50.852;15.602;2022-09-09T09:27:46;3.08;;;0.75;;
30048;SDS011;16879;50.852;15.602;2022-09-09T09:30:42;5.53;;;0.60;;
30048;SDS011;16879;50.852;15.602;2022-09-09T09:35:59;3.45;;;0.90;;
30048;SDS011;16879;50.852;15.602;2022-09-09T09:38:26;2.15;;;0.88;;
30048;SDS011;16879;50.852;15.602;2022-09-09T09:40:57;1.92;;;0.50;;
30048;SDS011;16879;50.852;15.602;2022-09-09T09:43:33;2.20;;;0.85;;
30048;SDS011;16879;50.852;15.602;2022-09-09T09:46:03;3.30;;;1.30;;
30048;SDS011;16879;50.852;15.602;2022-09-09T09:48:29;1.50;;;0.50;;
30048;SDS011;16879;50.852;15.602;2022-09-09T09:51:11;1.13;;;0.80;;
30048;SDS011;16879;50.852;15.602;2022-09-09T09:53:41;0.73;;;0.60;;
30048;SDS011;16879;50.852;15.602;2022-09-09T09:56:09;2.13;;;0.77;;
30048;SDS011;16879;50.852;15.602;2022-09-09T09:58:47;2.25;;;0.80;;
30048;SDS011;16879;50.852;15.602;2022-09-09T10:01:33;2.65;;;0.68;;
30048;SDS011;16879;50.852;15.602;2022-09-09T10:04:01;1.58;;;0.77;;
30048;SDS011;16879;50.852;15.602;2022-09-09T10:06:49;1.38;;;0.77;;
30048;SDS011;16879;50.852;15.602;2022-09-09T10:12:10;5.38;;;0.98;;
30048;SDS011;16879;50.852;15.602;2022-09-09T10:25:55;0.88;;;0.88;;
30048;SDS011;16879;50.852;15.602;2022-09-09T10:36:47;2.95;;;0.88;;
30048;SDS011;16879;50.852;15.602;2022-09-09T10:55:45;2.40;;;1.00;;
30048;SDS011;16879;50.852;15.602;2022-09-09T10:58:21;1.23;;;1.10;;
30048;SDS011;16879;50.852;15.602;2022-09-09T11:00:59;1.73;;;1.08;;
30048;SDS011;16879;50.852;15.602;2022-09-09T11:03:32;1.40;;;1.23;;
30048;SDS011;16879;50.852;15.602;2022-09-09T11:06:05;1.42;;;0.93;;
30048;SDS011;16879;50.852;15.602;2022-09-09T11:08:36;4.13;;;1.42;;
30048;SDS011;16879;50.852;15.602;2022-09-09T11:14:34;3.60;;;0.95;;
30048;SDS011;16879;50.852;15.602;2022-09-09T11:19:43;2.90;;;1.08;;
30048;SDS011;16879;50.852;15.602;2022-09-09T11:25:03;1.92;;;0.95;;
30048;SDS011;16879;50.852;15.602;2022-09-09T11:33:34;2.75;;;1.10;;
30048;SDS011;16879;50.852;15.602;2022-09-09T11:41:41;1.75;;;0.95;;
30048;SDS011;16879;50.852;15.602;2022-09-09T11:44:17;1.73;;;1.02;;
30048;SDS011;16879;50.852;15.602;2022-09-09T11:46:54;1.45;;;1.10;;
30048;SDS011;16879;50.852;15.602;2022-09-09T11:49:27;2.72;;;1.10;;
30048;SDS011;16879;50.852;15.602;2022-09-09T11:52:11;1.83;;;0.98;;
30048;SDS011;16879;50.852;15.602;2022-09-09T11:54:48;3.20;;;0.98;;
30048;SDS011;16879;50.852;15.602;2022-09-09T11:57:25;0.90;;;0.75;;
30048;SDS011;16879;50.852;15.602;2022-09-09T11:59:57;3.20;;;1.08;;
30048;SDS011;16879;50.852;15.602;2022-09-09T12:02:26;2.55;;;1.27;;
30048;SDS011;16879;50.852;15.602;2022-09-09T12:05:05;1.27;;;1.00;;
30048;SDS011;16879;50.852;15.602;2022-09-09T12:07:38;1.73;;;0.63;;
30048;SDS011;16879;50.852;15.602;2022-09-09T12:10:20;2.60;;;1.00;;
30048;SDS011;16879;50.852;15.602;2022-09-09T12:12:47;3.45;;;0.95;;
30048;SDS011;16879;50.852;15.602;2022-09-09T12:15:18;2.30;;;0.90;;
30048;SDS011;16879;50.852;15.602;2022-09-09T12:17:52;1.48;;;0.70;;
30048;SDS011;16879;50.852;15.602;2022-09-09T12:20:37;3.15;;;1.05;;
30048;SDS011;16879;50.852;15.602;2022-09-09T12:23:40;3.40;;;1.08;;
30048;SDS011;16879;50.852;15.602;2022-09-09T12:29:00;3.25;;;0.98;;
30048;SDS011;16879;50.852;15.602;2022-09-09T12:40:04;2.13;;;1.08;;
30048;SDS011;16879;50.852;15.602;2022-09-09T12:42:32;1.20;;;0.70;;
30048;SDS011;16879;50.852;15.602;2022-09-09T12:45:01;1.13;;;0.73;;
30048;SDS011;16879;50.852;15.602;2022-09-09T12:52:53;1.27;;;0.63;;
30048;SDS011;16879;50.852;15.602;2022-09-09T12:55:30;1.35;;;0.82;;
30048;SDS011;16879;50.852;15.602;2022-09-09T12:57:58;0.47;;;0.43;;
30048;SDS011;16879;50.852;15.602;2022-09-09T13:00:29;4.15;;;1.55;;
30048;SDS011;16879;50.852;15.602;2022-09-09T13:02:57;0.80;;;0.50;;
30048;SDS011;16879;50.852;15.602;2022-09-09T13:07:51;1.70;;;0.52;;
30048;SDS011;16879;50.852;15.602;2022-09-09T13:10:27;1.75;;;0.70;;
30048;SDS011;16879;50.852;15.602;2022-09-09T13:12:57;5.65;;;0.82;;
30048;SDS011;16879;50.852;15.602;2022-09-09T13:15:24;1.30;;;0.80;;
30048;SDS011;16879;50.852;15.602;2022-09-09T13:17:53;4.40;;;0.90;;
30048;SDS011;16879;50.852;15.602;2022-09-09T13:20:21;1.98;;;0.80;;
30048;SDS011;16879;50.852;15.602;2022-09-09T13:22:49;3.38;;;1.00;;
30048;SDS011;16879;50.852;15.602;2022-09-09T13:25:25;1.15;;;1.02;;
30048;SDS011;16879;50.852;15.602;2022-09-09T13:27:58;4.30;;;0.70;;
30048;SDS011;16879;50.852;15.602;2022-09-09T13:30:37;3.83;;;0.95;;
30048;SDS011;16879;50.852;15.602;2022-09-09T13:38:20;2.10;;;0.93;;
30048;SDS011;16879;50.852;15.602;2022-09-09T13:41:19;1.40;;;0.90;;
30048;SDS011;16879;50.852;15.602;2022-09-09T13:43:46;1.63;;;1.13;;
30048;SDS011;16879;50.852;15.602;2022-09-09T13:51:44;3.17;;;1.67;;
30048;SDS011;16879;50.852;15.602;2022-09-09T13:54:28;1.40;;;1.17;;
30048;SDS011;16879;50.852;15.602;2022-09-09T13:56:55;3.05;;;1.20;;
30048;SDS011;16879;50.852;15.602;2022-09-09T13:59:43;1.92;;;1.42;;
30048;SDS011;16879;50.852;15.602;2022-09-09T14:02:10;1.42;;;1.02;;
30048;SDS011;16879;50.852;15.602;2022-09-09T14:04:35;1.55;;;1.08;;
30048;SDS011;16879;50.852;15.602;2022-09-09T14:07:01;1.10;;;1.00;;
30048;SDS011;16879;50.852;15.602;2022-09-09T14:09:28;3.50;;;1.30;;
30048;SDS011;16879;50.852;15.602;2022-09-09T14:11:54;2.03;;;1.00;;
30048;SDS011;16879;50.852;15.602;2022-09-09T14:14:23;1.15;;;1.05;;
30048;SDS011;16879;50.852;15.602;2022-09-09T14:16:50;1.98;;;1.00;;
30048;SDS011;16879;50.852;15.602;2022-09-09T14:19:15;1.85;;;0.90;;
30048;SDS011;16879;50.852;15.602;2022-09-09T14:21:42;2.55;;;1.20;;
30048;SDS011;16879;50.852;15.602;2022-09-09T14:24:08;2.25;;;1.10;;
30048;SDS011;16879;50.852;15.602;2022-09-09T14:26:35;2.58;;;0.93;;
30048;SDS011;16879;50.852;15.602;2022-09-09T14:29:02;2.22;;;0.73;;
30048;SDS011;16879;50.852;15.602;2022-09-09T14:31:27;1.30;;;1.00;;
30048;SDS011;16879;50.852;15.602;2022-09-09T14:33:53;0.95;;;0.90;;
30048;SDS011;16879;50.852;15.602;2022-09-09T14:36:19;1.20;;;0.90;;
30048;SDS011;16879;50.852;15.602;2022-09-09T14:38:45;0.93;;;0.93;;
30048;SDS011;16879;50.852;15.602;2022-09-09T14:41:50;1.40;;;1.00;;
30048;SDS011;16879;50.852;15.602;2022-09-09T14:44:16;1.55;;;0.90;;
30048;SDS011;16879;50.852;15.602;2022-09-09T14:46:43;1.95;;;1.13;;
30048;SDS011;16879;50.852;15.602;2022-09-09T14:49:09;1.20;;;1.10;;
30048;SDS011;16879;50.852;15.602;2022-09-09T14:51:35;1.90;;;0.98;;
30048;SDS011;16879;50.852;15.602;2022-09-09T14:54:02;1.35;;;1.00;;
30048;SDS011;16879;50.852;15.602;2022-09-09T14:56:48;1.65;;;1.10;;
30048;SDS011;16879;50.852;15.602;2022-09-09T14:59:18;1.95;;;1.08;;
30048;SDS011;16879;50.852;15.602;2022-09-09T15:01:44;1.55;;;1.10;;
30048;SDS011;16879;50.852;15.602;2022-09-09T15:04:13;2.35;;;0.80;;
30048;SDS011;16879;50.852;15.602;2022-09-09T15:07:22;1.63;;;1.10;;
30048;SDS011;16879;50.852;15.602;2022-09-09T15:09:48;0.80;;;0.80;;
30048;SDS011;16879;50.852;15.602;2022-09-09T15:12:23;1.02;;;0.90;;
30048;SDS011;16879;50.852;15.602;2022-09-09T15:14:53;1.33;;;0.88;;
30048;SDS011;16879;50.852;15.602;2022-09-09T15:17:35;2.63;;;1.60;;
30048;SDS011;16879;50.852;15.602;2022-09-09T15:20:04;2.28;;;0.90;;
30048;SDS011;16879;50.852;15.602;2022-09-09T15:22:31;1.67;;;0.80;;
30048;SDS011;16879;50.852;15.602;2022-09-09T15:24:58;0.95;;;0.70;;
30048;SDS011;16879;50.852;15.602;2022-09-09T15:27:24;1.02;;;0.90;;
30048;SDS011;16879;50.852;15.602;2022-09-09T15:29:52;1.92;;;0.95;;
30048;SDS011;16879;50.852;15.602;2022-09-09T15:32:17;11.73;;;1.35;;
30048;SDS011;16879;50.852;15.602;2022-09-09T15:34:43;2.05;;;0.93;;
30048;SDS011;16879;50.852;15.602;2022-09-09T15:37:11;2.25;;;1.10;;
30048;SDS011;16879;50.852;15.602;2022-09-09T15:39:39;1.85;;;1.17;;
30048;SDS011;16879;50.852;15.602;2022-09-09T15:42:06;2.33;;;1.67;;
30048;SDS011;16879;50.852;15.602;2022-09-09T15:44:43;3.70;;;0.90;;
30048;SDS011;16879;50.852;15.602;2022-09-09T15:47:17;2.67;;;0.70;;
30048;SDS011;16879;50.852;15.602;2022-09-09T15:49:43;2.63;;;1.00;;
30048;SDS011;16879;50.852;15.602;2022-09-09T15:52:10;4.32;;;1.20;;
30048;SDS011;16879;50.852;15.602;2022-09-09T15:54:36;2.38;;;1.92;;
30048;SDS011;16879;50.852;15.602;2022-09-09T15:57:09;1.33;;;0.85;;
30048;SDS011;16879;50.852;15.602;2022-09-09T15:59:37;5.30;;;1.00;;
30048;SDS011;16879;50.852;15.602;2022-09-09T16:02:03;1.73;;;0.82;;
30048;SDS011;16879;50.852;15.602;2022-09-09T16:04:30;1.48;;;1.20;;
30048;SDS011;16879;50.852;15.602;2022-09-09T16:06:57;1.35;;;1.25;;
30048;SDS011;16879;50.852;15.602;2022-09-09T16:09:25;1.92;;;1.45;;
30048;SDS011;16879;50.852;15.602;2022-09-09T16:11:51;2.80;;;2.03;;
30048;SDS011;16879;50.852;15.602;2022-09-09T16:14:19;2.30;;;1.40;;
30048;SDS011;16879;50.852;15.602;2022-09-09T16:16:44;2.30;;;2.10;;
30048;SDS011;16879;50.852;15.602;2022-09-09T16:19:11;5.15;;;2.60;;
30048;SDS011;16879;50.852;15.602;2022-09-09T16:21:41;2.10;;;1.90;;
30048;SDS011;16879;50.852;15.602;2022-09-09T16:24:10;4.10;;;1.85;;
30048;SDS011;16879;50.852;15.602;2022-09-09T16:26:38;5.43;;;1.40;;
30048;SDS011;16879;50.852;15.602;2022-09-09T16:29:06;1.50;;;1.15;;
30048;SDS011;16879;50.852;15.602;2022-09-09T16:31:33;2.47;;;1.50;;
30048;SDS011;16879;50.852;15.602;2022-09-09T16:33:59;4.78;;;1.55;;
30048;SDS011;16879;50.852;15.602;2022-09-09T16:36:27;2.95;;;1.30;;
30048;SDS011;16879;50.852;15.602;2022-09-09T16:38:59;1.88;;;1.17;;
30048;SDS011;16879;50.852;15.602;2022-09-09T16:41:28;2.22;;;1.50;;
30048;SDS011;16879;50.852;15.602;2022-09-09T16:43:58;1.63;;;0.98;;
30048;SDS011;16879;50.852;15.602;2022-09-09T16:46:25;0.98;;;0.85;;
30048;SDS011;16879;50.852;15.602;2022-09-09T16:48:52;3.40;;;1.08;;
30048;SDS011;16879;50.852;15.602;2022-09-09T16:51:33;1.90;;;1.00;;
30048;SDS011;16879;50.852;15.602;2022-09-09T16:54:02;1.30;;;0.82;;
30048;SDS011;16879;50.852;15.602;2022-09-09T16:56:31;1.27;;;1.02;;
30048;SDS011;16879;50.852;15.602;2022-09-09T16:59:01;2.05;;;1.15;;
30048;SDS011;16879;50.852;15.602;2022-09-09T17:01:29;1.20;;;1.10;;
30048;SDS011;16879;50.852;15.602;2022-09-09T17:03:58;3.33;;;1.52;;
30048;SDS011;16879;50.852;15.602;2022-09-09T17:06:29;2.33;;;1.73;;
30048;SDS011;16879;50.852;15.602;2022-09-09T17:08:57;2.03;;;1.80;;
30048;SDS011;16879;50.852;15.602;2022-09-09T17:11:24;2.70;;;2.42;;
30048;SDS011;16879;50.852;15.602;2022-09-09T17:13:51;4.07;;;2.17;;
30048;SDS011;16879;50.852;15.602;2022-09-09T17:16:18;5.60;;;3.45;;
30048;SDS011;16879;50.852;15.602;2022-09-09T17:18:49;2.63;;;2.03;;
30048;SDS011;16879;50.852;15.602;2022-09-09T17:21:17;5.43;;;2.65;;
30048;SDS011;16879;50.852;15.602;2022-09-09T17:23:44;4.10;;;2.13;;
30048;SDS011;16879;50.852;15.602;2022-09-09T17:26:12;5.90;;;2.67;;
30048;SDS011;16879;50.852;15.602;2022-09-09T17:28:40;8.90;;;2.50;;
30048;SDS011;16879;50.852;15.602;2022-09-09T17:31:07;6.07;;;2.92;;
30048;SDS011;16879;50.852;15.602;2022-09-09T17:33:36;2.92;;;1.90;;
30048;SDS011;16879;50.852;15.602;2022-09-09T17:36:08;4.72;;;2.05;;
30048;SDS011;16879;50.852;15.602;2022-09-09T17:38:36;4.82;;;2.10;;